sensor_id;sensor_type;location;lat;lon;timestamp;pressure;altitude;pressure_sealevel;temperature;humidity
69351;BME280;57106;51.446;-2.606;2024-01-07T00:01:21;102337.58;;;5.38;80.60
69351;BME280;57106;51.446;-2.606;2024-01-07T00:03:49;102340.65;;;5.36;80.38
69351;BME280;57106;51.446;-2.606;2024-01-07T00:06:12;102347.16;;;5.29;80.58
69351;BME280;57106;51.446;-2.606;2024-01-07T00:08:37;102354.24;;;5.25;80.62
69351;BME280;57106;51.446;-2.606;2024-01-07T00:11:03;102359.99;;;5.04;81.45
69351;BME280;57106;51.446;-2.606;2024-01-07T00:13:28;102360.73;;;4.96;82.18
69351;BME280;57106;51.446;-2.606;2024-01-07T00:15:56;102365.44;;;5.18;81.70
69351;BME280;57106;51.446;-2.606;2024-01-07T00:18:20;102362.99;;;5.15;81.42
69351;BME280;57106;51.446;-2.606;2024-01-07T00:20:45;102368.98;;;5.23;80.74
69351;BME280;57106;51.446;-2.606;2024-01-07T00:23:11;102373.03;;;5.04;81.44
69351;BME280;57106;51.446;-2.606;2024-01-07T00:25:37;102369.39;;;5.10;81.34
69351;BME280;57106;51.446;-2.606;2024-01-07T00:28:04;102376.03;;;4.91;82.06
69351;BME280;57106;51.446;-2.606;2024-01-07T00:30:29;102379.64;;;4.99;82.45
69351;BME280;57106;51.446;-2.606;2024-01-07T00:32:54;102384.16;;;4.88;82.11
69351;BME280;57106;51.446;-2.606;2024-01-07T00:35:20;102383.51;;;5.04;81.83
69351;BME280;57106;51.446;-2.606;2024-01-07T00:37:46;102382.59;;;4.76;82.61
69351;BME280;57106;51.446;-2.606;2024-01-07T00:40:13;102385.30;;;4.82;82.50
69351;BME280;57106;51.446;-2.606;2024-01-07T00:42:38;102387.09;;;4.85;82.28
69351;BME280;57106;51.446;-2.606;2024-01-07T00:45:04;102389.92;;;4.93;82.51
69351;BME280;57106;51.446;-2.606;2024-01-07T00:47:32;102389.50;;;4.84;82.09
69351;BME280;57106;51.446;-2.606;2024-01-07T00:49:55;102391.59;;;4.96;81.99
69351;BME280;57106;51.446;-2.606;2024-01-07T00:52:20;102394.88;;;5.08;81.50
69351;BME280;57106;51.446;-2.606;2024-01-07T00:54:46;102396.76;;;4.93;81.84
69351;BME280;57106;51.446;-2.606;2024-01-07T00:57:12;102397.76;;;4.68;82.78
69351;BME280;57106;51.446;-2.606;2024-01-07T00:59:38;102400.64;;;4.81;82.70
69351;BME280;57106;51.446;-2.606;2024-01-07T01:02:04;102400.60;;;4.92;82.08
69351;BME280;57106;51.446;-2.606;2024-01-07T01:04:29;102403.91;;;4.91;82.14
69351;BME280;57106;51.446;-2.606;2024-01-07T01:06:54;102402.84;;;4.82;82.61
69351;BME280;57106;51.446;-2.606;2024-01-07T01:09:20;102403.09;;;4.80;82.76
69351;BME280;57106;51.446;-2.606;2024-01-07T01:11:45;102400.81;;;4.73;83.04
69351;BME280;57106;51.446;-2.606;2024-01-07T01:14:11;102399.97;;;4.80;83.11
69351;BME280;57106;51.446;-2.606;2024-01-07T01:16:38;102402.46;;;4.67;83.05
69351;BME280;57106;51.446;-2.606;2024-01-07T01:19:02;102402.75;;;4.57;83.24
69351;BME280;57106;51.446;-2.606;2024-01-07T01:21:28;102399.91;;;4.54;83.78
69351;BME280;57106;51.446;-2.606;2024-01-07T01:23:54;102405.04;;;4.55;83.97
69351;BME280;57106;51.446;-2.606;2024-01-07T01:26:19;102401.09;;;4.55;83.34
69351;BME280;57106;51.446;-2.606;2024-01-07T01:28:45;102403.72;;;4.53;83.55
69351;BME280;57106;51.446;-2.606;2024-01-07T01:31:14;102404.24;;;4.51;83.79
69351;BME280;57106;51.446;-2.606;2024-01-07T01:33:35;102404.22;;;4.50;84.08
69351;BME280;57106;51.446;-2.606;2024-01-07T01:36:04;102406.31;;;4.45;83.99
69351;BME280;57106;51.446;-2.606;2024-01-07T01:38:26;102410.12;;;4.53;83.60
69351;BME280;57106;51.446;-2.606;2024-01-07T01:40:52;102409.86;;;4.44;83.75
69351;BME280;57106;51.446;-2.606;2024-01-07T01:45:43;102411.40;;;4.47;83.57
69351;BME280;57106;51.446;-2.606;2024-01-07T01:48:08;102415.02;;;4.35;84.02
69351;BME280;57106;51.446;-2.606;2024-01-07T01:50:33;102419.76;;;4.18;84.70
69351;BME280;57106;51.446;-2.606;2024-01-07T01:52:59;102419.83;;;4.24;84.73
69351;BME280;57106;51.446;-2.606;2024-01-07T01:55:25;102422.19;;;4.34;84.33
69351;BME280;57106;51.446;-2.606;2024-01-07T01:57:49;102419.71;;;4.41;83.92
69351;BME280;57106;51.446;-2.606;2024-01-07T02:00:15;102420.39;;;4.55;83.31
69351;BME280;57106;51.446;-2.606;2024-01-07T02:05:06;102425.41;;;4.59;83.42
69351;BME280;57106;51.446;-2.606;2024-01-07T02:07:31;102426.95;;;4.48;83.36
69351;BME280;57106;51.446;-2.606;2024-01-07T02:09:57;102432.08;;;4.54;83.15
69351;BME280;57106;51.446;-2.606;2024-01-07T02:12:22;102440.18;;;4.63;83.12
69351;BME280;57106;51.446;-2.606;2024-01-07T02:14:51;102445.16;;;4.63;82.89
69351;BME280;57106;51.446;-2.606;2024-01-07T02:17:14;102448.81;;;4.65;83.14
69351;BME280;57106;51.446;-2.606;2024-01-07T02:19:39;102449.40;;;4.72;82.34
69351;BME280;57106;51.446;-2.606;2024-01-07T02:22:05;102453.10;;;4.71;82.00
69351;BME280;57106;51.446;-2.606;2024-01-07T02:24:30;102452.80;;;4.80;82.08
69351;BME280;57106;51.446;-2.606;2024-01-07T02:26:56;102458.27;;;4.63;82.99
69351;BME280;57106;51.446;-2.606;2024-01-07T02:29:22;102457.11;;;4.71;82.58
69351;BME280;57106;51.446;-2.606;2024-01-07T02:34:13;102462.62;;;4.81;81.99
69351;BME280;57106;51.446;-2.606;2024-01-07T02:36:38;102465.77;;;5.00;81.30
69351;BME280;57106;51.446;-2.606;2024-01-07T02:39:04;102466.54;;;4.98;80.95
69351;BME280;57106;51.446;-2.606;2024-01-07T02:41:31;102467.84;;;5.28;80.05
69351;BME280;57106;51.446;-2.606;2024-01-07T02:43:55;102465.18;;;5.04;80.40
69351;BME280;57106;51.446;-2.606;2024-01-07T02:46:23;102465.32;;;5.06;80.82
69351;BME280;57106;51.446;-2.606;2024-01-07T02:48:47;102467.19;;;5.31;79.34
69351;BME280;57106;51.446;-2.606;2024-01-07T02:51:15;102467.85;;;5.26;79.20
69351;BME280;57106;51.446;-2.606;2024-01-07T02:53:37;102469.47;;;5.35;79.76
69351;BME280;57106;51.446;-2.606;2024-01-07T02:56:04;102467.45;;;5.47;79.28
69351;BME280;57106;51.446;-2.606;2024-01-07T02:58:34;102467.19;;;5.38;78.74
69351;BME280;57106;51.446;-2.606;2024-01-07T03:00:55;102467.12;;;5.51;78.97
69351;BME280;57106;51.446;-2.606;2024-01-07T03:03:21;102467.66;;;5.45;78.43
69351;BME280;57106;51.446;-2.606;2024-01-07T03:05:46;102469.02;;;5.44;78.86
69351;BME280;57106;51.446;-2.606;2024-01-07T03:08:15;102476.04;;;5.43;78.35
69351;BME280;57106;51.446;-2.606;2024-01-07T03:10:37;102478.48;;;5.63;78.29
69351;BME280;57106;51.446;-2.606;2024-01-07T03:13:04;102477.83;;;5.52;78.27
69351;BME280;57106;51.446;-2.606;2024-01-07T03:15:28;102481.86;;;5.67;78.00
69351;BME280;57106;51.446;-2.606;2024-01-07T03:17:54;102488.42;;;5.38;78.90
69351;BME280;57106;51.446;-2.606;2024-01-07T03:20:19;102486.59;;;5.06;79.42
69351;BME280;57106;51.446;-2.606;2024-01-07T03:22:46;102489.97;;;5.29;79.35
69351;BME280;57106;51.446;-2.606;2024-01-07T03:25:10;102484.57;;;5.50;78.71
69351;BME280;57106;51.446;-2.606;2024-01-07T03:27:36;102488.31;;;5.63;78.09
69351;BME280;57106;51.446;-2.606;2024-01-07T03:30:02;102493.07;;;5.68;78.01
69351;BME280;57106;51.446;-2.606;2024-01-07T03:32:27;102494.32;;;5.56;77.82
69351;BME280;57106;51.446;-2.606;2024-01-07T03:34:53;102496.65;;;5.65;77.93
69351;BME280;57106;51.446;-2.606;2024-01-07T03:37:18;102498.99;;;5.38;78.30
69351;BME280;57106;51.446;-2.606;2024-01-07T03:39:44;102499.92;;;5.39;78.72
69351;BME280;57106;51.446;-2.606;2024-01-07T03:42:08;102500.63;;;5.26;78.77
69351;BME280;57106;51.446;-2.606;2024-01-07T03:44:34;102500.51;;;5.46;77.93
69351;BME280;57106;51.446;-2.606;2024-01-07T03:47:00;102497.44;;;5.39;78.37
69351;BME280;57106;51.446;-2.606;2024-01-07T03:49:25;102496.97;;;5.33;78.54
69351;BME280;57106;51.446;-2.606;2024-01-07T03:51:50;102497.53;;;5.35;78.52
69351;BME280;57106;51.446;-2.606;2024-01-07T03:54:16;102499.93;;;5.34;78.33
69351;BME280;57106;51.446;-2.606;2024-01-07T03:56:41;102497.14;;;5.61;78.02
69351;BME280;57106;51.446;-2.606;2024-01-07T03:59:07;102502.11;;;5.63;78.06
69351;BME280;57106;51.446;-2.606;2024-01-07T04:01:38;102501.47;;;5.39;78.16
69351;BME280;57106;51.446;-2.606;2024-01-07T04:03:58;102505.34;;;5.34;78.43
69351;BME280;57106;51.446;-2.606;2024-01-07T04:06:24;102504.08;;;5.17;79.03
69351;BME280;57106;51.446;-2.606;2024-01-07T04:11:15;102507.83;;;5.24;79.64
69351;BME280;57106;51.446;-2.606;2024-01-07T04:13:41;102507.34;;;5.21;79.99
69351;BME280;57106;51.446;-2.606;2024-01-07T04:42:47;102527.10;;;5.16;78.79
69351;BME280;57106;51.446;-2.606;2024-01-07T04:45:13;102534.51;;;5.15;79.62
69351;BME280;57106;51.446;-2.606;2024-01-07T04:47:39;102532.43;;;5.21;79.02
69351;BME280;57106;51.446;-2.606;2024-01-07T04:50:05;102535.44;;;5.03;79.83
69351;BME280;57106;51.446;-2.606;2024-01-07T04:52:30;102528.96;;;5.17;79.47
69351;BME280;57106;51.446;-2.606;2024-01-07T04:54:56;102532.34;;;5.26;78.61
69351;BME280;57106;51.446;-2.606;2024-01-07T04:57:21;102537.86;;;5.27;79.19
69351;BME280;57106;51.446;-2.606;2024-01-07T04:59:46;102537.55;;;5.33;78.50
69351;BME280;57106;51.446;-2.606;2024-01-07T05:02:11;102543.85;;;5.40;78.76
69351;BME280;57106;51.446;-2.606;2024-01-07T05:04:42;102542.37;;;5.51;78.00
69351;BME280;57106;51.446;-2.606;2024-01-07T05:07:04;102538.76;;;5.41;77.72
69351;BME280;57106;51.446;-2.606;2024-01-07T05:09:28;102539.54;;;5.42;77.65
69351;BME280;57106;51.446;-2.606;2024-01-07T05:11:53;102540.54;;;5.54;77.35
69351;BME280;57106;51.446;-2.606;2024-01-07T05:14:19;102553.06;;;5.69;77.09
69351;BME280;57106;51.446;-2.606;2024-01-07T05:16:44;102558.10;;;5.44;77.77
69351;BME280;57106;51.446;-2.606;2024-01-07T05:19:10;102564.16;;;5.19;78.26
69351;BME280;57106;51.446;-2.606;2024-01-07T05:21:35;102562.61;;;5.50;78.14
69351;BME280;57106;51.446;-2.606;2024-01-07T05:24:00;102562.49;;;5.42;78.12
69351;BME280;57106;51.446;-2.606;2024-01-07T05:26:26;102568.47;;;5.51;77.52
69351;BME280;57106;51.446;-2.606;2024-01-07T05:28:51;102573.70;;;5.42;77.70
69351;BME280;57106;51.446;-2.606;2024-01-07T05:31:17;102572.81;;;5.54;77.84
69351;BME280;57106;51.446;-2.606;2024-01-07T05:33:42;102575.21;;;5.59;77.24
69351;BME280;57106;51.446;-2.606;2024-01-07T05:36:08;102581.54;;;5.77;77.06
69351;BME280;57106;51.446;-2.606;2024-01-07T05:38:34;102585.41;;;5.77;76.89
69351;BME280;57106;51.446;-2.606;2024-01-07T05:40:59;102590.83;;;5.50;76.85
69351;BME280;57106;51.446;-2.606;2024-01-07T05:43:25;102591.28;;;5.65;77.41
69351;BME280;57106;51.446;-2.606;2024-01-07T05:45:51;102597.69;;;5.26;78.43
69351;BME280;57106;51.446;-2.606;2024-01-07T05:48:16;102597.53;;;5.52;77.83
69351;BME280;57106;51.446;-2.606;2024-01-07T05:50:42;102604.83;;;5.27;78.62
69351;BME280;57106;51.446;-2.606;2024-01-07T05:53:07;102609.46;;;5.46;78.64
69351;BME280;57106;51.446;-2.606;2024-01-07T05:55:35;102611.33;;;5.35;77.92
69351;BME280;57106;51.446;-2.606;2024-01-07T05:57:58;102611.44;;;5.60;77.51
69351;BME280;57106;51.446;-2.606;2024-01-07T06:00:23;102615.17;;;5.51;77.71
69351;BME280;57106;51.446;-2.606;2024-01-07T06:02:48;102618.83;;;5.48;78.12
69351;BME280;57106;51.446;-2.606;2024-01-07T06:05:13;102610.31;;;5.69;77.56
69351;BME280;57106;51.446;-2.606;2024-01-07T06:07:39;102609.29;;;5.69;76.96
69351;BME280;57106;51.446;-2.606;2024-01-07T06:10:04;102610.33;;;5.86;76.32
69351;BME280;57106;51.446;-2.606;2024-01-07T06:12:30;102608.79;;;5.68;77.08
69351;BME280;57106;51.446;-2.606;2024-01-07T06:14:55;102615.73;;;5.41;78.04
69351;BME280;57106;51.446;-2.606;2024-01-07T06:17:21;102621.57;;;5.40;77.95
69351;BME280;57106;51.446;-2.606;2024-01-07T06:19:47;102619.94;;;5.74;77.34
69351;BME280;57106;51.446;-2.606;2024-01-07T06:22:12;102619.77;;;5.66;77.22
69351;BME280;57106;51.446;-2.606;2024-01-07T06:24:37;102624.40;;;5.71;76.90
69351;BME280;57106;51.446;-2.606;2024-01-07T06:27:02;102630.58;;;5.60;76.83
69351;BME280;57106;51.446;-2.606;2024-01-07T06:29:27;102629.42;;;5.64;76.92
69351;BME280;57106;51.446;-2.606;2024-01-07T06:31:53;102630.13;;;5.45;77.54
69351;BME280;57106;51.446;-2.606;2024-01-07T06:34:19;102632.53;;;5.65;77.28
69351;BME280;57106;51.446;-2.606;2024-01-07T06:36:44;102638.00;;;5.68;77.17
69351;BME280;57106;51.446;-2.606;2024-01-07T06:39:10;102638.31;;;5.80;76.71
69351;BME280;57106;51.446;-2.606;2024-01-07T06:41:35;102639.23;;;5.80;76.89
69351;BME280;57106;51.446;-2.606;2024-01-07T06:44:01;102647.68;;;5.55;76.93
69351;BME280;57106;51.446;-2.606;2024-01-07T06:46:26;102648.48;;;5.61;77.36
69351;BME280;57106;51.446;-2.606;2024-01-07T06:48:52;102649.54;;;5.51;77.57
69351;BME280;57106;51.446;-2.606;2024-01-07T06:51:17;102650.34;;;5.59;77.48
69351;BME280;57106;51.446;-2.606;2024-01-07T06:53:42;102653.58;;;5.61;77.63
69351;BME280;57106;51.446;-2.606;2024-01-07T06:56:08;102657.40;;;5.27;77.78
69351;BME280;57106;51.446;-2.606;2024-01-07T06:58:34;102663.44;;;5.11;78.86
69351;BME280;57106;51.446;-2.606;2024-01-07T07:00:59;102662.71;;;5.30;78.74
69351;BME280;57106;51.446;-2.606;2024-01-07T07:03:24;102669.64;;;5.33;77.68
69351;BME280;57106;51.446;-2.606;2024-01-07T07:05:50;102673.59;;;5.35;77.79
69351;BME280;57106;51.446;-2.606;2024-01-07T07:08:16;102679.42;;;5.55;77.29
69351;BME280;57106;51.446;-2.606;2024-01-07T07:10:40;102689.75;;;5.11;77.98
69351;BME280;57106;51.446;-2.606;2024-01-07T07:13:06;102694.45;;;5.14;78.41
69351;BME280;57106;51.446;-2.606;2024-01-07T07:15:32;102696.45;;;4.87;79.61
69351;BME280;57106;51.446;-2.606;2024-01-07T07:17:57;102701.44;;;4.95;79.36
69351;BME280;57106;51.446;-2.606;2024-01-07T07:20:22;102707.42;;;5.00;78.93
69351;BME280;57106;51.446;-2.606;2024-01-07T07:22:47;102709.40;;;4.99;79.04
69351;BME280;57106;51.446;-2.606;2024-01-07T07:27:38;102710.52;;;4.87;79.15
69351;BME280;57106;51.446;-2.606;2024-01-07T07:30:05;102715.29;;;5.14;78.38
69351;BME280;57106;51.446;-2.606;2024-01-07T07:32:29;102715.68;;;4.93;78.57
69351;BME280;57106;51.446;-2.606;2024-01-07T07:34:55;102713.21;;;4.77;79.18
69351;BME280;57106;51.446;-2.606;2024-01-07T07:37:20;102720.38;;;4.86;79.09
69351;BME280;57106;51.446;-2.606;2024-01-07T07:42:11;102711.16;;;4.83;78.82
69351;BME280;57106;51.446;-2.606;2024-01-07T07:44:39;102710.45;;;4.77;79.17
69351;BME280;57106;51.446;-2.606;2024-01-07T07:47:02;102715.81;;;5.08;78.61
69351;BME280;57106;51.446;-2.606;2024-01-07T07:49:28;102723.92;;;5.02;78.44
69351;BME280;57106;51.446;-2.606;2024-01-07T07:51:53;102727.63;;;4.95;78.76
69351;BME280;57106;51.446;-2.606;2024-01-07T07:54:19;102728.06;;;4.89;78.77
69351;BME280;57106;51.446;-2.606;2024-01-07T07:56:44;102728.67;;;4.84;78.11
69351;BME280;57106;51.446;-2.606;2024-01-07T07:59:09;102729.27;;;4.88;78.05
69351;BME280;57106;51.446;-2.606;2024-01-07T08:01:35;102730.65;;;4.90;77.66
69351;BME280;57106;51.446;-2.606;2024-01-07T08:04:01;102735.31;;;4.88;77.13
69351;BME280;57106;51.446;-2.606;2024-01-07T08:06:26;102734.56;;;4.72;77.24
69351;BME280;57106;51.446;-2.606;2024-01-07T08:08:52;102734.97;;;4.72;76.73
69351;BME280;57106;51.446;-2.606;2024-01-07T08:11:17;102738.47;;;4.68;77.03
69351;BME280;57106;51.446;-2.606;2024-01-07T08:13:43;102743.17;;;4.71;76.78
69351;BME280;57106;51.446;-2.606;2024-01-07T08:16:09;102751.56;;;4.65;76.91
69351;BME280;57106;51.446;-2.606;2024-01-07T08:18:34;102751.12;;;4.79;76.68
69351;BME280;57106;51.446;-2.606;2024-01-07T08:20:59;102755.63;;;4.62;76.27
69351;BME280;57106;51.446;-2.606;2024-01-07T08:23:25;102760.82;;;4.61;76.77
69351;BME280;57106;51.446;-2.606;2024-01-07T08:25:51;102763.01;;;4.48;76.73
69351;BME280;57106;51.446;-2.606;2024-01-07T08:28:16;102769.03;;;4.55;76.83
69351;BME280;57106;51.446;-2.606;2024-01-07T08:30:42;102773.14;;;4.63;76.00
69351;BME280;57106;51.446;-2.606;2024-01-07T08:33:07;102779.95;;;4.82;75.42
69351;BME280;57106;51.446;-2.606;2024-01-07T08:35:34;102784.10;;;5.02;74.41
69351;BME280;57106;51.446;-2.606;2024-01-07T08:37:59;102785.49;;;4.67;74.87
69351;BME280;57106;51.446;-2.606;2024-01-07T08:40:25;102789.35;;;4.70;75.17
69351;BME280;57106;51.446;-2.606;2024-01-07T08:42:50;102789.95;;;4.93;74.46
69351;BME280;57106;51.446;-2.606;2024-01-07T08:45:17;102788.91;;;4.79;74.17
69351;BME280;57106;51.446;-2.606;2024-01-07T08:47:42;102790.28;;;4.88;73.36
69351;BME280;57106;51.446;-2.606;2024-01-07T08:50:09;102792.37;;;4.80;73.60
69351;BME280;57106;51.446;-2.606;2024-01-07T08:52:34;102790.85;;;4.78;73.90
69351;BME280;57106;51.446;-2.606;2024-01-07T08:55:00;102794.01;;;4.69;73.62
69351;BME280;57106;51.446;-2.606;2024-01-07T08:57:25;102797.77;;;4.64;74.00
69351;BME280;57106;51.446;-2.606;2024-01-07T08:59:51;102797.75;;;4.78;73.64
69351;BME280;57106;51.446;-2.606;2024-01-07T09:02:16;102804.51;;;4.75;73.55
69351;BME280;57106;51.446;-2.606;2024-01-07T09:04:42;102805.96;;;4.69;73.65
69351;BME280;57106;51.446;-2.606;2024-01-07T09:07:08;102804.25;;;4.84;73.37
69351;BME280;57106;51.446;-2.606;2024-01-07T09:09:34;102809.08;;;5.00;72.89
69351;BME280;57106;51.446;-2.606;2024-01-07T09:11:59;102815.16;;;5.07;72.16
69351;BME280;57106;51.446;-2.606;2024-01-07T09:14:34;102817.60;;;4.95;71.57
69351;BME280;57106;51.446;-2.606;2024-01-07T09:16:51;102830.28;;;4.82;70.40
69351;BME280;57106;51.446;-2.606;2024-01-07T09:19:21;102813.89;;;4.63;71.63
69351;BME280;57106;51.446;-2.606;2024-01-07T09:21:44;102826.63;;;4.57;70.89
69351;BME280;57106;51.446;-2.606;2024-01-07T09:24:07;102823.04;;;4.74;69.93
69351;BME280;57106;51.446;-2.606;2024-01-07T09:26:33;102827.12;;;4.65;69.62
69351;BME280;57106;51.446;-2.606;2024-01-07T09:28:58;102819.44;;;4.69;68.29
69351;BME280;57106;51.446;-2.606;2024-01-07T09:31:24;102823.16;;;4.77;67.50
69351;BME280;57106;51.446;-2.606;2024-01-07T09:33:50;102831.80;;;4.66;65.47
69351;BME280;57106;51.446;-2.606;2024-01-07T09:36:16;102825.33;;;4.76;65.68
69351;BME280;57106;51.446;-2.606;2024-01-07T09:38:41;102831.97;;;4.72;65.46
69351;BME280;57106;51.446;-2.606;2024-01-07T09:41:07;102828.78;;;4.82;64.85
69351;BME280;57106;51.446;-2.606;2024-01-07T09:43:33;102838.50;;;4.67;64.46
69351;BME280;57106;51.446;-2.606;2024-01-07T09:45:59;102841.26;;;4.69;64.45
69351;BME280;57106;51.446;-2.606;2024-01-07T09:48:24;102844.54;;;4.66;64.51
69351;BME280;57106;51.446;-2.606;2024-01-07T09:53:16;102857.04;;;4.67;65.86
69351;BME280;57106;51.446;-2.606;2024-01-07T09:55:52;102857.80;;;4.67;67.12
69351;BME280;57106;51.446;-2.606;2024-01-07T09:58:08;102852.27;;;4.63;66.89
69351;BME280;57106;51.446;-2.606;2024-01-07T10:00:34;102856.13;;;4.67;67.03
69351;BME280;57106;51.446;-2.606;2024-01-07T10:03:00;102858.75;;;4.65;67.40
69351;BME280;57106;51.446;-2.606;2024-01-07T10:05:25;102860.30;;;4.61;67.96
69351;BME280;57106;51.446;-2.606;2024-01-07T10:07:50;102856.40;;;4.69;68.10
69351;BME280;57106;51.446;-2.606;2024-01-07T10:10:17;102858.49;;;4.59;68.47
69351;BME280;57106;51.446;-2.606;2024-01-07T10:12:44;102868.15;;;4.61;68.75
69351;BME280;57106;51.446;-2.606;2024-01-07T10:15:08;102864.88;;;4.58;68.29
69351;BME280;57106;51.446;-2.606;2024-01-07T10:17:34;102872.98;;;4.66;67.55
69351;BME280;57106;51.446;-2.606;2024-01-07T10:19:59;102874.98;;;4.66;66.24
69351;BME280;57106;51.446;-2.606;2024-01-07T10:22:26;102873.97;;;4.75;64.79
69351;BME280;57106;51.446;-2.606;2024-01-07T10:24:51;102879.56;;;4.68;64.38
69351;BME280;57106;51.446;-2.606;2024-01-07T10:27:16;102877.80;;;4.61;64.82
69351;BME280;57106;51.446;-2.606;2024-01-07T10:29:42;102880.20;;;4.89;65.24
69351;BME280;57106;51.446;-2.606;2024-01-07T10:32:08;102880.56;;;4.75;65.87
69351;BME280;57106;51.446;-2.606;2024-01-07T10:34:35;102879.60;;;4.73;66.36
69351;BME280;57106;51.446;-2.606;2024-01-07T10:37:00;102880.00;;;4.56;66.54
69351;BME280;57106;51.446;-2.606;2024-01-07T10:39:26;102887.98;;;4.52;66.61
69351;BME280;57106;51.446;-2.606;2024-01-07T10:41:52;102881.15;;;4.54;67.19
69351;BME280;57106;51.446;-2.606;2024-01-07T10:44:17;102879.51;;;4.54;67.08
69351;BME280;57106;51.446;-2.606;2024-01-07T10:46:43;102886.87;;;4.67;67.03
69351;BME280;57106;51.446;-2.606;2024-01-07T10:49:14;102878.05;;;4.55;66.98
69351;BME280;57106;51.446;-2.606;2024-01-07T10:51:34;102892.27;;;4.53;66.25
69351;BME280;57106;51.446;-2.606;2024-01-07T10:54:00;102888.73;;;4.51;67.70
69351;BME280;57106;51.446;-2.606;2024-01-07T10:56:33;102883.57;;;4.62;66.93
69351;BME280;57106;51.446;-2.606;2024-01-07T10:58:52;102880.70;;;4.41;66.43
69351;BME280;57106;51.446;-2.606;2024-01-07T11:01:17;102890.72;;;4.61;66.40
69351;BME280;57106;51.446;-2.606;2024-01-07T11:03:48;102883.41;;;4.55;64.96
69351;BME280;57106;51.446;-2.606;2024-01-07T11:06:15;102879.60;;;4.62;64.57
69351;BME280;57106;51.446;-2.606;2024-01-07T11:08:39;102879.72;;;4.81;64.82
69351;BME280;57106;51.446;-2.606;2024-01-07T11:11:06;102874.52;;;5.05;64.02
69351;BME280;57106;51.446;-2.606;2024-01-07T11:13:32;102882.18;;;4.99;63.22
69351;BME280;57106;51.446;-2.606;2024-01-07T11:15:52;102875.00;;;5.04;62.91
69351;BME280;57106;51.446;-2.606;2024-01-07T11:18:17;102874.29;;;5.13;61.93
69351;BME280;57106;51.446;-2.606;2024-01-07T11:20:43;102875.53;;;5.10;61.53
69351;BME280;57106;51.446;-2.606;2024-01-07T11:23:27;102881.36;;;5.20;61.42
69351;BME280;57106;51.446;-2.606;2024-01-07T11:25:36;102879.13;;;5.10;60.05
69351;BME280;57106;51.446;-2.606;2024-01-07T11:28:01;102876.95;;;5.02;60.17
69351;BME280;57106;51.446;-2.606;2024-01-07T11:30:26;102887.71;;;4.99;59.81
69351;BME280;57106;51.446;-2.606;2024-01-07T11:32:56;102880.22;;;5.05;59.46
69351;BME280;57106;51.446;-2.606;2024-01-07T11:37:43;102877.58;;;5.01;59.27
69351;BME280;57106;51.446;-2.606;2024-01-07T11:40:09;102879.67;;;4.97;57.74
69351;BME280;57106;51.446;-2.606;2024-01-07T11:42:34;102871.90;;;5.00;58.58
69351;BME280;57106;51.446;-2.606;2024-01-07T11:45:00;102872.77;;;5.08;56.82
69351;BME280;57106;51.446;-2.606;2024-01-07T11:47:26;102866.85;;;5.17;56.75
69351;BME280;57106;51.446;-2.606;2024-01-07T11:49:52;102867.63;;;5.28;57.18
69351;BME280;57106;51.446;-2.606;2024-01-07T11:52:18;102874.06;;;5.25;56.01
69351;BME280;57106;51.446;-2.606;2024-01-07T11:54:43;102865.67;;;5.17;56.55
69351;BME280;57106;51.446;-2.606;2024-01-07T11:57:10;102861.25;;;5.09;56.92
69351;BME280;57106;51.446;-2.606;2024-01-07T11:59:35;102858.87;;;5.25;56.22
69351;BME280;57106;51.446;-2.606;2024-01-07T12:02:00;102868.87;;;5.41;56.44
69351;BME280;57106;51.446;-2.606;2024-01-07T12:04:26;102870.88;;;5.31;57.00
69351;BME280;57106;51.446;-2.606;2024-01-07T12:06:52;102877.32;;;5.25;58.14
69351;BME280;57106;51.446;-2.606;2024-01-07T12:09:17;102876.59;;;5.27;58.51
69351;BME280;57106;51.446;-2.606;2024-01-07T12:11:44;102874.87;;;5.21;58.99
69351;BME280;57106;51.446;-2.606;2024-01-07T12:14:09;102871.81;;;5.16;58.45
69351;BME280;57106;51.446;-2.606;2024-01-07T12:16:35;102877.52;;;5.24;58.18
69351;BME280;57106;51.446;-2.606;2024-01-07T12:23:52;102870.79;;;5.16;58.15
69351;BME280;57106;51.446;-2.606;2024-01-07T12:26:17;102862.71;;;5.08;58.28
69351;BME280;57106;51.446;-2.606;2024-01-07T12:31:09;102862.08;;;4.99;58.47
69351;BME280;57106;51.446;-2.606;2024-01-07T12:33:37;102871.43;;;5.08;58.62
69351;BME280;57106;51.446;-2.606;2024-01-07T12:38:27;102869.37;;;4.90;58.66
69351;BME280;57106;51.446;-2.606;2024-01-07T12:40:52;102868.74;;;5.25;58.14
69351;BME280;57106;51.446;-2.606;2024-01-07T12:43:18;102873.02;;;5.10;56.64
69351;BME280;57106;51.446;-2.606;2024-01-07T12:45:44;102867.53;;;5.04;57.39
69351;BME280;57106;51.446;-2.606;2024-01-07T12:48:09;102869.81;;;5.02;56.39
69351;BME280;57106;51.446;-2.606;2024-01-07T12:50:35;102866.31;;;5.10;55.30
69351;BME280;57106;51.446;-2.606;2024-01-07T12:53:01;102862.65;;;5.30;55.12
69351;BME280;57106;51.446;-2.606;2024-01-07T12:55:26;102862.17;;;5.28;54.51
69351;BME280;57106;51.446;-2.606;2024-01-07T12:57:52;102856.93;;;5.02;54.94
69351;BME280;57106;51.446;-2.606;2024-01-07T13:00:18;102856.01;;;5.04;55.46
69351;BME280;57106;51.446;-2.606;2024-01-07T13:02:44;102860.82;;;5.24;55.27
69351;BME280;57106;51.446;-2.606;2024-01-07T13:05:09;102863.54;;;5.41;55.24
69351;BME280;57106;51.446;-2.606;2024-01-07T13:07:35;102853.98;;;5.35;54.43
69351;BME280;57106;51.446;-2.606;2024-01-07T13:10:01;102861.43;;;5.54;54.52
69351;BME280;57106;51.446;-2.606;2024-01-07T13:12:26;102855.06;;;5.56;54.12
69351;BME280;57106;51.446;-2.606;2024-01-07T13:14:52;102859.32;;;5.64;54.28
69351;BME280;57106;51.446;-2.606;2024-01-07T13:17:18;102857.46;;;5.31;55.37
69351;BME280;57106;51.446;-2.606;2024-01-07T13:19:44;102855.53;;;5.38;54.51
69351;BME280;57106;51.446;-2.606;2024-01-07T13:22:09;102855.55;;;5.26;54.75
69351;BME280;57106;51.446;-2.606;2024-01-07T13:24:36;102853.17;;;5.24;55.68
69351;BME280;57106;51.446;-2.606;2024-01-07T13:27:01;102850.10;;;5.31;55.30
69351;BME280;57106;51.446;-2.606;2024-01-07T13:29:26;102855.03;;;5.39;55.09
69351;BME280;57106;51.446;-2.606;2024-01-07T13:31:52;102853.21;;;5.23;54.55
69351;BME280;57106;51.446;-2.606;2024-01-07T13:34:18;102852.28;;;5.05;55.24
69351;BME280;57106;51.446;-2.606;2024-01-07T13:36:44;102859.68;;;5.06;55.44